Time;durP1;ratioP1;P1;durP2;ratioP2;P2;SDS_P1;SDS_P2;PMS_P1;PMS_P2;Temp;Humidity;BMP_temperature;BMP_pressure;BME280_temperature;BME280_humidity;BME280_pressure;Samples;Min_cycle;Max_cycle;Signal;HPM_P1;HPM_P2
2024/02/11 00:00:34;;;;;;;10.30;7.43;;;10.60;99.90;;;;;;5148178;27;20582;-73
2024/02/11 00:03:01;;;;;;;7.77;6.20;;;10.60;99.90;;;;;;5147654;27;20438;-72
2024/02/11 00:05:27;;;;;;;7.40;5.67;;;10.60;99.90;;;;;;5147345;27;20444;-75
2024/02/11 00:07:53;;;;;;;7.03;5.73;;;10.60;99.90;;;;;;5148715;27;20426;-74
2024/02/11 00:10:19;;;;;;;6.73;5.07;;;10.50;99.90;;;;;;5129771;27;20191;-74
2024/02/11 00:12:45;;;;;;;7.40;5.30;;;10.50;99.90;;;;;;5146757;27;20440;-73
2024/02/11 00:15:11;;;;;;;10.80;7.80;;;10.50;99.90;;;;;;5146542;27;20975;-72
2024/02/11 00:17:37;;;;;;;7.03;6.17;;;10.50;99.90;;;;;;5148846;27;20416;-75
2024/02/11 00:20:09;;;;;;;7.80;6.10;;;10.50;99.90;;;;;;5119049;27;20233;-74
2024/02/11 00:22:37;;;;;;;9.67;5.17;;;10.50;99.90;;;;;;5129806;27;20924;-74
2024/02/11 00:25:05;;;;;;;8.90;6.50;;;10.40;99.90;;;;;;5111991;27;20478;-73
2024/02/11 00:27:30;;;;;;;7.60;5.30;;;10.40;99.90;;;;;;5147930;27;20440;-74
2024/02/11 00:29:56;;;;;;;6.20;5.60;;;10.40;99.90;;;;;;5112538;27;20410;-74
2024/02/11 00:32:24;;;;;;;6.23;5.50;;;10.40;99.90;;;;;;5147442;27;20167;-74
2024/02/11 00:34:50;;;;;;;6.57;5.10;;;10.30;99.90;;;;;;5146414;27;20446;-74
2024/02/11 00:37:16;;;;;;;8.80;5.37;;;10.30;99.90;;;;;;5144992;27;20420;-73
2024/02/11 00:39:42;;;;;;;8.10;6.10;;;10.30;99.90;;;;;;5145848;27;20444;-74
2024/02/11 00:42:07;;;;;;;8.60;6.87;;;10.30;99.90;;;;;;5146142;27;20223;-74
2024/02/11 00:44:34;;;;;;;8.80;7.47;;;10.30;99.90;;;;;;5146782;27;20207;-74
2024/02/11 00:47:01;;;;;;;9.73;7.47;;;10.30;99.90;;;;;;5147489;27;20212;-71
2024/02/11 00:49:27;;;;;;;7.80;6.50;;;10.30;99.90;;;;;;5145723;27;20409;-72
2024/02/11 00:51:54;;;;;;;9.73;7.10;;;10.30;99.90;;;;;;5144772;27;20424;-73
2024/02/11 00:54:20;;;;;;;10.53;7.77;;;10.30;99.90;;;;;;5146969;27;20403;-72
2024/02/11 00:56:46;;;;;;;12.47;7.67;;;10.30;99.90;;;;;;5144802;27;20437;-71
2024/02/11 00:59:16;;;;;;;11.07;8.03;;;10.20;99.90;;;;;;5146531;27;20424;-72
2024/02/11 01:01:42;;;;;;;18.93;9.50;;;10.20;99.90;;;;;;5145990;27;20421;-71
2024/02/11 01:04:07;;;;;;;8.57;6.93;;;10.20;99.90;;;;;;5146094;27;20506;-75
2024/02/11 01:06:33;;;;;;;9.70;7.50;;;10.20;99.90;;;;;;5128568;27;20439;-74
2024/02/11 01:08:59;;;;;;;8.80;7.40;;;10.20;99.90;;;;;;5143763;27;20434;-74
2024/02/11 01:11:25;;;;;;;7.57;6.17;;;10.20;99.90;;;;;;5126223;27;20421;-71
2024/02/11 01:13:51;;;;;;;8.00;7.00;;;10.20;99.90;;;;;;5127223;27;20272;-73
2024/02/11 01:16:17;;;;;;;7.17;6.27;;;10.10;99.90;;;;;;5130229;27;20218;-74
2024/02/11 01:18:45;;;;;;;8.40;7.60;;;10.10;99.90;;;;;;5145266;27;20404;-72
2024/02/11 01:21:11;;;;;;;10.73;8.20;;;10.10;99.90;;;;;;5124936;27;20205;-72
2024/02/11 01:23:37;;;;;;;9.17;7.33;;;10.10;99.90;;;;;;5143610;27;20516;-72
2024/02/11 01:26:03;;;;;;;10.40;8.37;;;10.10;99.90;;;;;;5143299;27;20460;-71
2024/02/11 01:28:30;;;;;;;8.70;7.13;;;10.10;99.90;;;;;;5143660;27;20228;-74
2024/02/11 01:30:56;;;;;;;9.93;6.70;;;10.10;99.90;;;;;;5146064;27;20405;-72
2024/02/11 01:33:23;;;;;;;9.33;8.33;;;10.00;99.90;;;;;;5125959;27;20490;-75
2024/02/11 01:35:49;;;;;;;10.37;8.10;;;10.00;99.90;;;;;;5143472;27;20465;-71
2024/02/11 01:38:14;;;;;;;9.47;8.03;;;10.00;99.90;;;;;;5142590;27;20440;-70
2024/02/11 01:40:42;;;;;;;9.90;8.23;;;10.00;99.90;;;;;;5124160;27;20421;-70
2024/02/11 01:43:09;;;;;;;12.40;8.87;;;10.00;99.90;;;;;;5143174;27;20226;-70
2024/02/11 01:45:36;;;;;;;8.17;7.27;;;10.00;99.90;;;;;;5143740;27;20467;-71
2024/02/11 01:48:08;;;;;;;7.37;6.30;;;10.00;99.90;;;;;;5143622;27;20527;-71
2024/02/11 01:50:37;;;;;;;8.23;6.50;;;10.00;99.90;;;;;;5142228;27;20470;-72
2024/02/11 01:53:04;;;;;;;9.13;7.40;;;10.00;99.90;;;;;;5142752;27;20708;-71
2024/02/11 01:55:34;;;;;;;7.63;6.60;;;10.00;99.90;;;;;;5143324;27;20444;-71
2024/02/11 01:58:01;;;;;;;12.03;9.20;;;10.00;99.90;;;;;;5142484;27;20864;-70
2024/02/11 02:00:28;;;;;;;10.43;8.40;;;10.00;99.90;;;;;;5141931;27;20416;-71
2024/02/11 02:02:55;;;;;;;14.07;8.20;;;10.10;99.90;;;;;;5141978;27;20403;-69
2024/02/11 02:05:21;;;;;;;8.17;6.67;;;10.10;99.90;;;;;;5143470;28;20418;-72
2024/02/11 02:07:47;;;;;;;8.00;6.80;;;10.00;99.90;;;;;;5124418;28;20454;-72
2024/02/11 02:10:14;;;;;;;9.57;6.93;;;10.00;99.90;;;;;;5140908;28;20183;-70
2024/02/11 02:12:42;;;;;;;7.97;5.87;;;10.00;99.90;;;;;;5142722;28;20175;-71
2024/02/11 02:15:09;;;;;;;10.47;6.57;;;10.00;99.90;;;;;;5144098;28;20429;-73
2024/02/11 02:17:37;;;;;;;9.80;7.20;;;10.00;99.90;;;;;;5124944;28;20420;-72
2024/02/11 02:20:04;;;;;;;8.50;7.17;;;10.00;99.90;;;;;;5141320;28;20715;-70
2024/02/11 02:22:31;;;;;;;10.27;7.53;;;10.00;99.90;;;;;;5123275;28;20781;-70
2024/02/11 02:24:57;;;;;;;11.00;7.97;;;10.00;99.90;;;;;;5138058;28;20588;-70
2024/02/11 02:27:22;;;;;;;11.97;8.13;;;10.10;99.90;;;;;;5126664;28;20471;-69
2024/02/11 02:29:48;;;;;;;8.17;7.37;;;10.10;99.90;;;;;;5132597;27;20183;-72
2024/02/11 02:32:14;;;;;;;7.37;6.63;;;10.10;99.90;;;;;;5141153;28;20193;-70
2024/02/11 02:34:40;;;;;;;8.73;7.83;;;10.10;99.90;;;;;;5140282;28;20206;-71
2024/02/11 02:37:07;;;;;;;10.27;8.17;;;10.10;99.90;;;;;;5140592;28;20440;-70
2024/02/11 02:39:32;;;;;;;10.43;8.23;;;10.10;99.90;;;;;;5140298;28;20424;-70
2024/02/11 02:41:58;;;;;;;12.03;9.27;;;10.10;99.90;;;;;;5139433;28;20452;-69
2024/02/11 02:44:24;;;;;;;9.70;7.63;;;10.10;99.90;;;;;;5140632;28;20315;-67
2024/02/11 02:46:49;;;;;;;8.73;7.43;;;10.10;99.90;;;;;;5137240;28;20780;-69
2024/02/11 02:49:15;;;;;;;8.60;7.23;;;10.10;99.90;;;;;;5139312;28;20187;-70
2024/02/11 02:51:42;;;;;;;9.37;8.23;;;10.10;99.90;;;;;;5143004;28;20188;-71
2024/02/11 02:54:09;;;;;;;9.83;8.50;;;10.10;99.90;;;;;;5143675;28;20184;-71
2024/02/11 02:56:36;;;;;;;14.53;7.90;;;10.10;99.90;;;;;;5124772;28;20448;-72
2024/02/11 02:59:05;;;;;;;12.37;7.40;;;10.10;99.90;;;;;;5141478;28;20422;-71
2024/02/11 03:01:31;;;;;;;8.97;7.00;;;10.10;99.90;;;;;;5141788;28;20426;-69
2024/02/11 03:04:03;;;;;;;9.00;7.10;;;10.00;99.90;;;;;;5120294;28;20942;-69
2024/02/11 03:06:29;;;;;;;8.30;7.47;;;10.00;99.90;;;;;;5142019;28;20424;-69
2024/02/11 03:08:55;;;;;;;10.93;7.90;;;10.00;99.90;;;;;;5142374;28;20408;-70
2024/02/11 03:11:21;;;;;;;9.20;7.50;;;10.00;99.90;;;;;;5140575;28;20179;-71
2024/02/11 03:13:46;;;;;;;8.23;6.87;;;10.10;99.90;;;;;;5123309;28;20436;-69
2024/02/11 03:16:15;;;;;;;9.53;7.27;;;10.10;99.90;;;;;;5123787;28;20204;-70
2024/02/11 03:18:42;;;;;;;9.93;7.60;;;10.10;99.90;;;;;;5123652;27;20710;-70
2024/02/11 03:21:09;;;;;;;8.33;6.40;;;10.10;99.90;;;;;;5145922;27;20408;-69
2024/02/11 03:23:35;;;;;;;10.07;8.00;;;10.10;99.90;;;;;;5144023;27;20506;-69
2024/02/11 03:26:01;;;;;;;8.83;7.57;;;10.10;99.90;;;;;;5143792;27;20429;-68
2024/02/11 03:28:27;;;;;;;8.43;7.23;;;10.10;99.90;;;;;;5142873;27;20429;-69
2024/02/11 03:30:53;;;;;;;7.50;6.53;;;10.10;99.90;;;;;;5143600;27;20434;-70
2024/02/11 03:33:18;;;;;;;9.27;7.50;;;10.10;99.90;;;;;;5141938;27;20565;-69
2024/02/11 03:35:45;;;;;;;9.97;7.20;;;10.10;99.90;;;;;;5142285;27;20215;-70
2024/02/11 03:38:11;;;;;;;9.63;6.83;;;10.00;99.90;;;;;;5136370;27;20188;-70
2024/02/11 03:40:37;;;;;;;11.50;7.37;;;10.00;99.90;;;;;;5123607;27;20432;-70
2024/02/11 03:43:02;;;;;;;7.63;6.80;;;10.00;99.90;;;;;;5099092;27;20319;-72
2024/02/11 03:45:29;;;;;;;8.43;7.40;;;10.00;99.90;;;;;;5142948;27;20502;-70
2024/02/11 03:47:55;;;;;;;11.07;7.47;;;10.10;99.90;;;;;;5131395;27;20181;-69
2024/02/11 03:50:20;;;;;;;13.67;7.67;;;10.00;99.90;;;;;;5143350;27;20428;-72
2024/02/11 03:52:46;;;;;;;8.43;7.20;;;10.00;99.90;;;;;;5143366;27;20190;-70
2024/02/11 03:55:11;;;;;;;7.60;6.80;;;10.00;99.90;;;;;;5144445;27;20206;-70
2024/02/11 03:57:40;;;;;;;8.73;6.70;;;10.00;99.90;;;;;;5144136;27;20180;-69
2024/02/11 04:00:14;;;;;;;9.63;6.47;;;10.00;99.90;;;;;;5140926;27;20190;-68
2024/02/11 04:02:39;;;;;;;8.60;6.13;;;10.00;99.90;;;;;;5144574;27;20890;-71
2024/02/11 04:05:06;;;;;;;6.53;5.83;;;10.00;99.90;;;;;;5145682;27;20488;-69
2024/02/11 04:07:31;;;;;;;7.47;6.67;;;10.00;99.90;;;;;;5145816;27;20191;-70
2024/02/11 04:10:02;;;;;;;6.57;5.37;;;10.00;99.90;;;;;;5145675;27;20420;-69
2024/02/11 04:12:27;;;;;;;6.93;6.23;;;10.00;99.90;;;;;;5127065;27;20187;-68
2024/02/11 04:14:54;;;;;;;6.97;5.90;;;10.00;99.90;;;;;;5145685;27;20409;-69
2024/02/11 04:17:20;;;;;;;9.90;6.80;;;10.00;99.90;;;;;;5145771;27;20462;-69
2024/02/11 04:19:46;;;;;;;8.40;5.70;;;10.10;99.90;;;;;;5144706;27;20951;-68
2024/02/11 04:22:14;;;;;;;6.43;5.30;;;10.10;99.90;;;;;;5141776;27;20554;-69
2024/02/11 04:24:45;;;;;;;7.90;6.00;;;10.10;99.90;;;;;;5124030;27;20246;-70
2024/02/11 04:27:14;;;;;;;8.03;7.23;;;10.10;99.90;;;;;;5140878;27;20430;-68
2024/02/11 04:29:44;;;;;;;8.90;7.30;;;10.10;99.90;;;;;;5123982;27;20531;-69
2024/02/11 04:32:11;;;;;;;8.50;6.13;;;10.10;99.90;;;;;;5146632;27;20418;-69
2024/02/11 04:34:42;;;;;;;6.40;5.80;;;10.10;99.90;;;;;;5126339;27;20417;-70
2024/02/11 04:37:12;;;;;;;6.83;6.13;;;10.10;99.90;;;;;;5140797;27;20448;-69
2024/02/11 04:39:38;;;;;;;13.60;7.07;;;10.10;99.90;;;;;;5140764;27;20417;-68
2024/02/11 04:42:04;;;;;;;7.17;5.93;;;10.20;99.90;;;;;;5140774;27;20454;-69
2024/02/11 04:44:31;;;;;;;7.97;6.33;;;10.20;99.90;;;;;;5140637;27;20210;-70
2024/02/11 04:46:57;;;;;;;6.77;5.67;;;10.20;99.90;;;;;;5121984;27;20239;-68
2024/02/11 04:49:23;;;;;;;5.87;5.23;;;10.20;99.90;;;;;;5145061;27;20421;-69
2024/02/11 04:51:52;;;;;;;7.00;5.83;;;10.20;99.90;;;;;;5140168;27;20450;-68
2024/02/11 04:54:18;;;;;;;6.47;5.13;;;10.30;99.90;;;;;;5139500;27;20181;-69
2024/02/11 04:56:46;;;;;;;6.87;4.60;;;10.30;99.90;;;;;;5121051;27;20436;-68
2024/02/11 04:59:15;;;;;;;5.53;4.80;;;10.30;99.90;;;;;;5121946;27;20538;-71
2024/02/11 05:01:43;;;;;;;7.10;4.57;;;10.40;99.90;;;;;;5139840;27;20476;-67
2024/02/11 05:04:10;;;;;;;5.97;4.50;;;10.40;99.90;;;;;;5139081;27;20483;-69
2024/02/11 05:06:40;;;;;;;3.80;3.50;;;10.40;99.90;;;;;;5140091;27;20448;-70
2024/02/11 05:09:09;;;;;;;4.83;3.43;;;10.40;99.90;;;;;;5141894;27;21034;-69
2024/02/11 05:11:35;;;;;;;3.77;3.23;;;10.40;99.90;;;;;;5143475;27;20430;-69
2024/02/11 05:14:01;;;;;;;4.10;2.87;;;10.50;99.90;;;;;;5143288;27;20426;-69
2024/02/11 05:16:28;;;;;;;2.87;2.57;;;10.40;99.90;;;;;;5142788;27;20878;-69
2024/02/11 05:18:54;;;;;;;3.63;2.17;;;10.40;99.90;;;;;;5144028;27;20187;-69
2024/02/11 05:21:20;;;;;;;2.20;1.40;;;10.40;99.90;;;;;;5124540;27;20700;-68
2024/02/11 05:23:47;;;;;;;2.27;1.37;;;10.40;99.90;;;;;;5140854;27;20622;-67
2024/02/11 05:26:17;;;;;;;1.30;0.90;;;10.40;99.90;;;;;;5138464;27;20426;-68
2024/02/11 05:28:43;;;;;;;2.80;0.80;;;10.30;99.90;;;;;;5137581;27;20437;-67
2024/02/11 05:31:17;;;;;;;1.10;0.90;;;10.10;99.90;;;;;;5137954;27;20467;-68
2024/02/11 05:33:43;;;;;;;3.37;0.70;;;9.90;99.90;;;;;;5137397;27;20435;-69
2024/02/11 05:36:09;;;;;;;1.63;0.80;;;9.80;99.90;;;;;;5137823;27;20691;-68
2024/02/11 05:38:39;;;;;;;3.80;1.47;;;9.50;99.90;;;;;;5137638;27;20244;-68
2024/02/11 05:41:07;;;;;;;1.40;1.00;;;9.20;99.90;;;;;;5136983;27;20625;-68
2024/02/11 05:43:33;;;;;;;4.30;1.67;;;8.90;99.90;;;;;;5137820;27;20517;-67
2024/02/11 05:45:59;;;;;;;5.20;1.93;;;8.60;99.90;;;;;;5138379;27;20432;-67
2024/02/11 05:48:25;;;;;;;6.43;2.00;;;8.40;99.90;;;;;;5130476;27;20413;-69
2024/02/11 05:50:50;;;;;;;5.00;1.80;;;8.20;99.90;;;;;;5140535;27;20226;-68
2024/02/11 05:53:16;;;;;;;4.50;1.80;;;8.00;99.90;;;;;;5137797;27;20217;-68
2024/02/11 05:55:42;;;;;;;6.93;2.10;;;7.90;99.90;;;;;;5137628;27;20443;-69
2024/02/11 05:58:08;;;;;;;2.83;1.40;;;7.70;99.90;;;;;;5137319;27;20186;-68
2024/02/11 06:00:36;;;;;;;7.67;2.63;;;7.70;99.90;;;;;;5138213;27;20397;-69
2024/02/11 06:03:02;;;;;;;8.47;2.47;;;7.60;99.90;;;;;;5141532;27;20257;-70
2024/02/11 06:05:28;;;;;;;6.00;2.00;;;7.60;99.90;;;;;;5120406;28;20923;-67
2024/02/11 06:07:55;;;;;;;13.20;3.00;;;7.50;99.90;;;;;;5137994;28;20485;-68
2024/02/11 06:10:25;;;;;;;9.73;2.83;;;7.50;99.90;;;;;;5135332;28;20417;-69
2024/02/11 06:12:51;;;;;;;6.30;2.23;;;7.50;99.90;;;;;;5138132;28;20428;-69
2024/02/11 06:15:21;;;;;;;5.70;1.63;;;7.50;99.90;;;;;;5138975;28;20835;-69
2024/02/11 06:17:48;;;;;;;6.17;2.50;;;7.50;99.90;;;;;;5134870;28;20421;-68
2024/02/11 06:20:15;;;;;;;7.70;2.50;;;7.50;99.90;;;;;;5136919;28;20523;-69
2024/02/11 06:22:42;;;;;;;4.73;2.00;;;7.50;99.90;;;;;;5138003;28;20432;-69
2024/02/11 06:25:08;;;;;;;6.57;2.37;;;7.50;99.90;;;;;;5139946;28;20448;-67
2024/02/11 06:27:34;;;;;;;6.70;2.33;;;7.50;99.90;;;;;;5140166;28;20420;-68
2024/02/11 06:30:01;;;;;;;3.40;2.17;;;7.50;99.90;;;;;;5137516;28;20420;-69
2024/02/11 06:32:27;;;;;;;9.33;3.20;;;7.40;99.90;;;;;;5137446;28;20405;-70
2024/02/11 06:34:52;;;;;;;9.80;3.40;;;7.40;99.90;;;;;;5137327;28;20435;-69
2024/02/11 06:37:19;;;;;;;7.47;2.97;;;7.40;99.90;;;;;;5139435;28;20215;-69
2024/02/11 06:39:46;;;;;;;7.30;3.00;;;7.40;99.90;;;;;;5137829;28;20183;-67
2024/02/11 06:42:11;;;;;;;8.00;2.90;;;7.40;99.90;;;;;;5138258;28;20520;-69
2024/02/11 06:44:38;;;;;;;6.80;3.23;;;7.40;99.90;;;;;;5138209;28;21578;-68
2024/02/11 06:47:10;;;;;;;8.00;2.70;;;7.40;99.90;;;;;;5137420;28;20268;-69
2024/02/11 06:49:38;;;;;;;8.03;2.77;;;7.40;99.90;;;;;;5137659;28;20989;-69
2024/02/11 06:52:05;;;;;;;9.17;2.70;;;7.40;99.90;;;;;;5137587;28;20440;-68
2024/02/11 06:54:32;;;;;;;6.23;2.83;;;7.40;99.90;;;;;;5141312;27;20856;-69
2024/02/11 06:56:58;;;;;;;3.00;1.97;;;7.40;99.90;;;;;;5142097;27;20477;-70
2024/02/11 06:59:24;;;;;;;5.10;2.03;;;7.40;99.90;;;;;;5141747;27;20838;-68
2024/02/11 07:01:49;;;;;;;6.30;3.43;;;7.50;99.90;;;;;;5141765;27;20431;-67
2024/02/11 07:04:15;;;;;;;4.90;2.67;;;7.50;99.90;;;;;;5141762;27;20214;-68
2024/02/11 07:06:48;;;;;;;7.30;3.20;;;7.50;99.90;;;;;;5123465;27;20209;-68
2024/02/11 07:09:17;;;;;;;4.87;2.60;;;7.50;99.90;;;;;;5144536;27;20536;-70
2024/02/11 07:11:43;;;;;;;6.30;3.10;;;7.50;99.90;;;;;;5147100;27;20395;-69
2024/02/11 07:14:09;;;;;;;7.43;3.33;;;7.50;99.90;;;;;;5146497;27;20421;-68
2024/02/11 07:16:38;;;;;;;9.97;3.93;;;7.50;99.90;;;;;;5141977;27;20225;-68
2024/02/11 07:19:04;;;;;;;4.87;3.17;;;7.50;99.90;;;;;;5123772;27;20420;-69
2024/02/11 07:21:31;;;;;;;8.43;3.90;;;7.50;99.90;;;;;;5142834;27;20430;-68
2024/02/11 07:23:58;;;;;;;4.53;2.70;;;7.50;99.90;;;;;;5135540;27;20739;-69
2024/02/11 07:26:24;;;;;;;4.27;3.10;;;7.50;99.90;;;;;;5138659;27;20548;-69
2024/02/11 07:28:50;;;;;;;4.83;2.97;;;7.50;99.90;;;;;;5128267;27;20492;-68
2024/02/11 07:31:16;;;;;;;4.40;2.80;;;7.60;99.90;;;;;;5132493;27;20405;-69
2024/02/11 07:33:43;;;;;;;8.23;2.77;;;7.60;99.90;;;;;;5133838;27;20432;-67
2024/02/11 07:36:09;;;;;;;8.43;3.80;;;7.70;99.90;;;;;;5142699;27;20227;-69
2024/02/11 07:38:36;;;;;;;9.20;3.50;;;7.70;99.90;;;;;;5141610;27;20665;-70
2024/02/11 07:41:02;;;;;;;5.07;2.87;;;7.70;99.90;;;;;;5142679;27;20179;-67
2024/02/11 07:43:27;;;;;;;11.70;3.87;;;7.70;99.90;;;;;;5141710;27;20464;-69
2024/02/11 07:45:57;;;;;;;6.20;3.40;;;7.70;99.90;;;;;;5142332;27;20464;-66
2024/02/11 07:48:25;;;;;;;4.47;2.40;;;7.70;99.90;;;;;;5141536;27;20423;-66
2024/02/11 07:50:51;;;;;;;7.80;3.30;;;7.80;99.90;;;;;;5143134;27;20427;-69
2024/02/11 07:53:18;;;;;;;11.83;3.47;;;7.80;99.90;;;;;;5129584;27;20400;-72
2024/02/11 07:55:43;;;;;;;7.53;3.50;;;7.90;99.90;;;;;;5142655;27;20899;-69
2024/02/11 07:58:09;;;;;;;6.50;3.90;;;7.90;99.90;;;;;;5126009;27;20417;-70
2024/02/11 08:00:35;;;;;;;4.33;2.63;;;7.90;99.90;;;;;;5142147;27;20274;-68
2024/02/11 08:03:00;;;;;;;4.90;2.70;;;8.00;99.90;;;;;;5141457;27;20198;-69
2024/02/11 08:05:26;;;;;;;5.80;3.33;;;8.00;99.90;;;;;;5123771;27;20241;-68
2024/02/11 08:07:52;;;;;;;5.90;3.03;;;8.10;99.90;;;;;;5142292;27;20691;-69
2024/02/11 08:10:19;;;;;;;4.90;2.57;;;8.10;99.90;;;;;;5142485;27;20209;-69
2024/02/11 08:12:44;;;;;;;6.80;3.40;;;8.10;99.90;;;;;;5144756;27;20442;-69
2024/02/11 08:15:12;;;;;;;7.53;3.07;;;8.10;99.90;;;;;;5141317;27;20897;-69
2024/02/11 08:17:41;;;;;;;5.50;3.03;;;8.10;99.90;;;;;;5139593;27;20613;-69
2024/02/11 08:20:10;;;;;;;4.70;3.27;;;8.10;99.90;;;;;;5139910;27;20422;-68
2024/02/11 08:22:39;;;;;;;5.93;2.83;;;8.10;99.90;;;;;;5141235;27;20953;-71
2024/02/11 08:25:07;;;;;;;4.30;2.50;;;8.10;99.90;;;;;;5140285;27;20559;-70
2024/02/11 08:27:37;;;;;;;4.73;2.33;;;8.10;99.90;;;;;;5140813;27;20416;-69
2024/02/11 08:30:05;;;;;;;7.53;2.53;;;8.10;99.90;;;;;;5141414;27;20434;-69
2024/02/11 08:32:31;;;;;;;3.70;2.30;;;8.10;99.90;;;;;;5141620;27;20428;-70
2024/02/11 08:34:57;;;;;;;3.17;2.27;;;8.10;99.90;;;;;;5139746;27;20535;-70
2024/02/11 08:37:23;;;;;;;8.53;2.83;;;8.20;99.90;;;;;;5122142;27;20326;-68
2024/02/11 08:39:50;;;;;;;4.47;2.57;;;8.20;99.90;;;;;;5140383;27;20221;-69
2024/02/11 08:42:15;;;;;;;3.10;2.10;;;8.30;99.90;;;;;;5139684;27;20494;-69
2024/02/11 08:44:41;;;;;;;4.00;2.57;;;8.20;99.90;;;;;;5141343;27;20437;-70
2024/02/11 08:47:08;;;;;;;3.67;2.27;;;8.30;99.90;;;;;;5139141;27;20203;-69
2024/02/11 08:49:35;;;;;;;4.63;2.80;;;8.30;99.90;;;;;;5139501;27;20187;-68
2024/02/11 08:52:01;;;;;;;4.90;3.00;;;8.30;99.90;;;;;;5140481;27;20420;-69
2024/02/11 08:54:26;;;;;;;4.83;2.63;;;8.40;99.90;;;;;;5144383;27;20435;-71
2024/02/11 08:56:52;;;;;;;4.70;3.63;;;8.40;99.90;;;;;;5146138;27;20433;-71
2024/02/11 08:59:19;;;;;;;3.73;2.70;;;8.40;99.90;;;;;;5142692;27;20285;-69
2024/02/11 09:01:55;;;;;;;9.80;3.70;;;8.40;99.90;;;;;;5142318;27;20219;-69
2024/02/11 09:04:23;;;;;;;9.60;4.17;;;8.40;99.90;;;;;;5142087;27;21439;-68
2024/02/11 09:06:52;;;;;;;6.50;3.67;;;8.50;99.90;;;;;;5141666;27;20443;-70
2024/02/11 09:09:25;;;;;;;5.93;3.63;;;8.50;99.90;;;;;;5139801;27;20464;-70
2024/02/11 09:11:57;;;;;;;6.07;3.67;;;8.50;99.90;;;;;;5133452;27;20417;-70
2024/02/11 09:14:25;;;;;;;7.77;3.40;;;8.70;99.90;;;;;;5140588;27;20444;-70
2024/02/11 09:16:56;;;;;;;6.27;3.87;;;8.80;99.90;;;;;;5140827;27;20447;-70
2024/02/11 09:19:24;;;;;;;3.90;3.10;;;8.80;99.90;;;;;;5133879;27;20435;-70
2024/02/11 09:21:49;;;;;;;7.00;4.30;;;8.90;99.90;;;;;;5138622;27;20433;-69
2024/02/11 09:24:16;;;;;;;6.13;4.07;;;9.00;99.90;;;;;;5133323;27;20488;-69
2024/02/11 09:26:41;;;;;;;4.63;3.80;;;9.20;99.90;;;;;;5139470;27;20838;-69
2024/02/11 09:29:07;;;;;;;5.57;3.70;;;9.30;99.90;;;;;;5140192;27;20417;-69
2024/02/11 09:31:34;;;;;;;6.70;4.70;;;9.40;99.90;;;;;;5141474;27;20199;-69
2024/02/11 09:34:00;;;;;;;5.33;3.80;;;9.50;99.90;;;;;;5121006;27;20431;-68
2024/02/11 09:36:26;;;;;;;6.67;5.20;;;9.60;99.90;;;;;;5140027;27;20700;-70
2024/02/11 09:38:51;;;;;;;6.07;4.60;;;9.80;99.90;;;;;;5139933;27;20412;-69
2024/02/11 09:41:17;;;;;;;4.90;4.27;;;9.90;99.90;;;;;;5139702;27;20194;-70
2024/02/11 09:43:45;;;;;;;7.23;4.50;;;9.90;99.90;;;;;;5139905;27;20219;-69
2024/02/11 09:46:18;;;;;;;6.53;4.37;;;10.00;99.90;;;;;;5137674;27;20223;-71
2024/02/11 09:48:46;;;;;;;7.90;3.87;;;10.10;99.90;;;;;;5138251;27;20463;-70
2024/02/11 09:51:14;;;;;;;5.43;4.00;;;10.10;99.90;;;;;;5121669;27;20409;-70
2024/02/11 09:53:40;;;;;;;5.60;3.80;;;10.10;99.90;;;;;;5140418;27;20731;-70
2024/02/11 09:56:06;;;;;;;5.33;3.90;;;10.10;99.90;;;;;;5129293;27;20466;-70
2024/02/11 09:58:32;;;;;;;5.87;4.37;;;10.10;99.90;;;;;;5141428;27;20389;-69
2024/02/11 10:00:59;;;;;;;3.50;3.20;;;10.20;99.90;;;;;;5125943;27;20435;-71
2024/02/11 10:03:27;;;;;;;8.03;3.90;;;10.20;99.90;;;;;;5145265;27;20904;-71
2024/02/11 10:05:55;;;;;;;4.50;3.10;;;10.30;99.90;;;;;;5141083;27;20463;-69
2024/02/11 10:08:21;;;;;;;6.07;3.30;;;10.30;99.90;;;;;;5141744;28;20417;-70
2024/02/11 10:10:48;;;;;;;4.53;3.57;;;10.40;99.90;;;;;;5140009;28;20413;-72
2024/02/11 10:13:19;;;;;;;4.40;3.10;;;10.40;99.90;;;;;;5140491;28;20181;-70
2024/02/11 10:15:48;;;;;;;5.43;3.40;;;10.50;99.90;;;;;;5140046;28;20904;-71
2024/02/11 10:18:18;;;;;;;6.53;4.47;;;10.60;99.90;;;;;;5139505;28;20421;-70
2024/02/11 10:20:48;;;;;;;7.17;5.40;;;10.70;99.90;;;;;;5124028;28;20447;-70
2024/02/11 10:23:18;;;;;;;10.83;4.97;;;10.70;99.90;;;;;;5141311;28;20393;-70
2024/02/11 10:25:45;;;;;;;7.40;4.50;;;10.70;99.90;;;;;;5140814;28;20705;-70
2024/02/11 10:28:11;;;;;;;7.20;5.87;;;10.70;99.90;;;;;;5125939;27;20414;-71
2024/02/11 10:30:37;;;;;;;5.70;3.77;;;10.60;99.90;;;;;;5149187;27;20450;-71
2024/02/11 10:33:03;;;;;;;6.30;4.23;;;10.60;99.90;;;;;;5150708;27;20411;-72
2024/02/11 10:35:35;;;;;;;5.20;4.50;;;10.70;99.90;;;;;;5129791;27;20242;-72
2024/02/11 10:38:06;;;;;;;5.83;3.80;;;10.80;99.90;;;;;;5146718;27;20187;-72
2024/02/11 10:40:34;;;;;;;7.97;4.43;;;10.90;99.90;;;;;;5147639;27;20393;-71
2024/02/11 10:43:03;;;;;;;6.50;4.37;;;11.00;99.90;;;;;;5127829;27;20535;-73
2024/02/11 10:45:29;;;;;;;6.20;4.50;;;11.20;99.90;;;;;;5147087;27;20455;-70
2024/02/11 10:47:54;;;;;;;8.50;5.13;;;11.30;99.90;;;;;;5129220;27;20422;-71
2024/02/11 10:50:21;;;;;;;5.00;3.80;;;11.40;99.90;;;;;;5146934;27;20468;-70
2024/02/11 10:52:49;;;;;;;6.13;3.80;;;11.50;99.90;;;;;;5148556;27;20290;-72
2024/02/11 10:55:16;;;;;;;4.30;3.90;;;11.50;99.90;;;;;;5147961;27;20475;-74
2024/02/11 10:57:50;;;;;;;5.80;3.80;;;11.60;99.90;;;;;;5148000;27;20496;-74
2024/02/11 11:00:20;;;;;;;4.00;3.40;;;11.60;99.90;;;;;;5148348;27;20854;-73
2024/02/11 11:02:52;;;;;;;8.83;4.90;;;11.60;99.90;;;;;;5110351;27;20403;-72
2024/02/11 11:05:20;;;;;;;5.10;4.00;;;11.70;99.90;;;;;;5147045;27;20480;-72
2024/02/11 11:07:52;;;;;;;6.40;4.40;;;11.70;99.90;;;;;;5148324;27;20432;-74
2024/02/11 11:10:18;;;;;;;5.70;3.90;;;11.80;99.90;;;;;;5108495;27;20431;-72
2024/02/11 11:12:49;;;;;;;7.03;3.90;;;11.90;99.90;;;;;;5146191;27;20415;-74
2024/02/11 11:15:22;;;;;;;3.70;3.40;;;11.90;99.90;;;;;;5145763;27;20681;-72
2024/02/11 11:17:48;;;;;;;5.60;3.50;;;12.00;99.90;;;;;;5146457;27;20410;-74
2024/02/11 11:20:14;;;;;;;4.27;3.33;;;12.20;99.90;;;;;;5126740;27;20440;-73
2024/02/11 11:22:43;;;;;;;4.57;4.17;;;12.20;99.90;;;;;;5146883;27;20194;-73
2024/02/11 11:25:11;;;;;;;3.30;3.00;;;12.30;99.90;;;;;;5146789;27;20464;-72
2024/02/11 11:27:37;;;;;;;3.93;3.63;;;12.40;99.90;;;;;;5127496;27;20420;-70
2024/02/11 11:30:06;;;;;;;3.60;3.10;;;12.40;99.90;;;;;;5146378;27;20754;-74
2024/02/11 11:32:33;;;;;;;5.10;3.17;;;12.30;99.90;;;;;;5146779;27;20421;-73
2024/02/11 11:34:59;;;;;;;3.93;2.83;;;12.30;99.90;;;;;;5146761;27;20420;-75
2024/02/11 11:37:25;;;;;;;9.27;4.27;;;12.20;99.90;;;;;;5146669;27;20522;-74
2024/02/11 11:39:54;;;;;;;3.30;2.77;;;12.20;99.90;;;;;;5146623;27;20291;-73
2024/02/11 11:42:19;;;;;;;2.53;2.30;;;12.20;99.90;;;;;;5147048;27;20223;-74
2024/02/11 11:44:47;;;;;;;5.80;2.60;;;12.30;99.90;;;;;;5130663;27;20458;-74
2024/02/11 11:47:13;;;;;;;3.53;2.73;;;12.60;99.90;;;;;;5147814;27;20254;-75
2024/02/11 11:49:40;;;;;;;3.80;2.40;;;12.80;99.90;;;;;;5145778;27;20401;-74
2024/02/11 11:52:08;;;;;;;4.43;3.40;;;13.00;99.90;;;;;;5146363;27;20499;-74
2024/02/11 11:54:34;;;;;;;3.60;2.33;;;13.10;99.90;;;;;;5144832;27;20400;-73
2024/02/11 11:57:01;;;;;;;3.47;2.57;;;13.20;99.90;;;;;;5127871;27;20448;-75
2024/02/11 11:59:27;;;;;;;3.27;2.73;;;13.30;99.90;;;;;;5144599;27;20182;-73
2024/02/11 12:01:55;;;;;;;6.17;3.27;;;13.30;99.90;;;;;;5145799;27;20848;-73
2024/02/11 12:04:22;;;;;;;3.40;2.30;;;13.20;99.90;;;;;;5147028;27;20460;-75
2024/02/11 12:06:47;;;;;;;2.40;2.17;;;13.20;99.90;;;;;;5145558;27;20485;-74
2024/02/11 12:09:16;;;;;;;2.40;1.83;;;13.20;99.90;;;;;;5138954;27;20870;-73
2024/02/11 12:11:43;;;;;;;5.27;2.97;;;13.10;99.90;;;;;;5138241;27;20511;-74
2024/02/11 12:14:13;;;;;;;3.80;2.40;;;13.10;99.90;;;;;;5144398;27;20476;-74
2024/02/11 12:16:40;;;;;;;3.20;2.30;;;13.00;99.90;;;;;;5146066;27;20462;-74
2024/02/11 12:19:05;;;;;;;4.00;2.40;;;12.90;99.90;;;;;;5144201;27;20432;-73
2024/02/11 12:21:34;;;;;;;3.07;2.33;;;12.80;99.90;;;;;;5143812;27;20619;-73
2024/02/11 12:24:00;;;;;;;4.83;2.50;;;12.80;99.90;;;;;;5143949;27;20305;-73
2024/02/11 12:26:27;;;;;;;2.63;2.37;;;12.80;99.90;;;;;;5108806;27;20440;-74
2024/02/11 12:28:53;;;;;;;2.40;2.10;;;12.80;99.90;;;;;;5144780;27;20453;-72
2024/02/11 12:31:20;;;;;;;2.27;1.77;;;12.80;99.90;;;;;;5144664;27;20473;-74
2024/02/11 12:33:50;;;;;;;2.83;1.90;;;12.80;99.90;;;;;;5143249;27;20435;-72
2024/02/11 12:36:21;;;;;;;3.60;1.97;;;12.70;99.90;;;;;;5143776;27;20436;-74
2024/02/11 12:38:50;;;;;;;2.80;1.60;;;12.60;99.90;;;;;;5126721;27;20441;-72
2024/02/11 12:41:16;;;;;;;3.57;2.00;;;12.50;99.90;;;;;;5126721;27;20447;-74
2024/02/11 12:43:46;;;;;;;4.03;1.97;;;12.40;99.90;;;;;;5126000;27;20464;-75
2024/02/11 12:46:12;;;;;;;2.93;1.90;;;12.40;99.90;;;;;;5143524;27;20448;-74